VCV weather

Southern California Logistics Airport
Victorville, California, United States

Public forecast

Using degrees Fahrenheit for public forecast. Weather courtesy of forecast.io.

METAR (pilot weather report)

Retrieved 2019/07/19 13:00 UTC (24 minutes ago):

KVCV 191300Z 00000KT 10SM SKC A2993

TAF (pilot weather forecast)

Closest forecast is Edwards Air Force Base, 30.9 nm (57.2 km) NW. Retrieved 2019/07/19 10:19 UTC (3 hours ago):

TAF KEDW 191008Z 1910/2016 23009KT 9999 SKC QNH2987INS BECMG 1916/1917 23012G18KT 9999 SKC QNH2988INS BECMG 1920/1921 23020G30KT 9999 SKC 520009 QNH2983INS BECMG 2003/2004 23012G18KT 9999 SKC QNH2986INS BECMG 2006/2007 23009KT 9999 SKC QNH2989INS TX34/1921Z TN15/1913Z